Meteo Giornale » Osservazioni meteo Arabia Saudita » Al Baha
ore: 00:00 - Osservazioni Meteo Al Baha
Lat. 20° 18' N Lon. 41° 38' E Alt. 1652 metri s.l.m.
30 °C
Nuvoloso
Temp. 24 Ore
26 °C
36 °C
Nord/NOvest
18.5 Km/h
Dew point 12 °C
Umidità 33 %
Visibilità 10 Km
Il sole sorge alle ore 05:57
Il sole tramonta alle ore 18:29
| Data e Ora | Cielo e Fenomeni | T °C | DP °C | Um. % | Pres. hPa | Vis. km | Vento km/h | |
|---|---|---|---|---|---|---|---|---|
| Oggi h: 00:00 | Nuvoloso | 30 | 12 | 33 | 1018 | 10 | N/NO 18.5 | |
| Ieri h: 23:00 | Nuvoloso | 30 | 11 | 30 | 1018 | 10 | NO 20.3 | |
| Ieri h: 22:00 | Nuvoloso | 31 | 10 | 27 | 1018 | 10 | O/NO 22.2 | |
| Ieri h: 21:00 | Nuvoloso | 32 | 8 | 22 | 1017 | 10 | O/NO 7.4 | |
| Ieri h: 20:00 | Nuvoloso | 32 | 12 | 29 | 1017 | 10 | O 14.8 | |
| Ieri h: 19:00 | Nuvoloso | 33 | 12 | 27 | 1016 | 10 | O 13 | |
| Ieri h: 18:00 | Nuvoloso | 35 | -4 | 8 | 1016 | 10 | N/NO 29.6 | |
| Ieri h: 17:00 | Nuvoloso | 36 | -5 | 7 | 1015 | 10 | NO 29.6 | |
| Ieri h: 16:00 | Nuvoloso | 36 | -4 | 7 | 1016 | 10 | N 27.8 | |
| Ieri h: 15:00 | Nuvoloso | 36 | -3 | 8 | 1016 | 10 | N 31.5 | |
| Ieri h: 14:00 | Sereno | 36 | -4 | 7 | 1017 | 10 | NO 24 | |
| Ieri h: 13:00 | Sereno | 36 | -3 | 8 | 1018 | 10 | N/NO 31.5 | |
| Ieri h: 12:00 | Sereno | 34 | -3 | 9 | 1019 | 10 | N 29.6 | |
| Ieri h: 11:00 | Sereno | 33 | -3 | 9 | 1019 | 10 | N/NO 31.5 | |
| Ieri h: 10:00 | Sereno | 33 | -3 | 9 | 1019 | 10 | N/NO 37 | |
| Ieri h: 09:00 | Sereno | 31 | -2 | 11 | 1019 | 10 | NO 33.3 | |
| Ieri h: 08:00 | Sereno | 29 | -1 | 14 | 1019 | 10 | O/NO 25.9 | |
| Ieri h: 07:00 | Sereno | 27 | 0 | 17 | 1019 | 10 | O/NO 24 | |
| Ieri h: 06:00 | Sereno | 27 | 1 | 18 | 1018 | 10 | O/NO 22.2 | |
| Ieri h: 05:00 | Sereno | 26 | 4 | 24 | 1018 | 10 | O/NO 20.3 | |
| Ieri h: 04:00 | Sereno | 26 | 7 | 29 | 1018 | 10 | O/NO 18.5 | |
| Ieri h: 03:00 | Sereno | 27 | 7 | 28 | 1018 | 10 | NO 18.5 | |
| Ieri h: 02:00 | Sereno | 28 | 8 | 28 | 1018 | 10 | N 13 | |
| Ieri h: 01:00 | Sereno | 29 | 10 | 30 | 1018 | 10 | NO 14.8 | |



